createdAt,value
2022-09-03T00:00:58.241Z,1.40
2022-09-03T00:03:32.477Z,1.00
2022-09-03T00:06:10.829Z,0.93
2022-09-03T00:08:43.867Z,1.10
2022-09-03T00:11:18.039Z,1.20
2022-09-03T00:13:49.647Z,0.93
2022-09-03T00:16:20.980Z,1.10
2022-09-03T00:18:53.083Z,1.00
2022-09-03T00:21:29.399Z,0.90
2022-09-03T00:24:00.270Z,1.07
2022-09-03T00:26:30.657Z,1.00
2022-09-03T00:29:02.966Z,1.00
2022-09-03T00:31:34.938Z,1.00
2022-09-03T00:34:07.111Z,1.43
2022-09-03T00:36:41.486Z,1.33
2022-09-03T00:39:11.291Z,1.10
2022-09-03T00:41:44.345Z,1.00
2022-09-03T00:44:30.451Z,1.20
2022-09-03T00:47:04.120Z,1.20
2022-09-03T00:49:42.775Z,1.13
2022-09-03T00:52:19.042Z,1.60
2022-09-03T00:54:59.231Z,1.13
2022-09-03T00:57:38.599Z,0.80
2022-09-03T01:00:09.056Z,1.10
2022-09-03T01:03:10.383Z,1.00
2022-09-03T01:05:50.443Z,1.07
2022-09-03T01:08:43.999Z,1.03
2022-09-03T01:11:22.286Z,1.20
2022-09-03T01:13:57.492Z,1.13
2022-09-03T01:16:31.984Z,1.20
2022-09-03T01:19:11.112Z,1.00
2022-09-03T01:22:02.662Z,0.97
2022-09-03T01:24:58.550Z,0.97
2022-09-03T01:27:38.730Z,1.00
2022-09-03T01:30:09.735Z,1.13
2022-09-03T01:32:43.216Z,1.10
2022-09-03T01:35:18.571Z,1.13
2022-09-03T01:37:58.235Z,0.90
2022-09-03T01:40:35.330Z,1.00
2022-09-03T01:43:16.996Z,1.20
2022-09-03T01:45:52.837Z,1.00
2022-09-03T01:48:46.074Z,1.00
2022-09-03T01:51:21.547Z,1.07
2022-09-03T01:54:21.841Z,1.20
2022-09-03T01:57:19.152Z,1.13
2022-09-03T02:00:05.543Z,1.00
2022-09-03T02:02:34.739Z,1.30
2022-09-03T02:05:08.476Z,1.30
2022-09-03T02:07:38.465Z,1.10
2022-09-03T02:10:08.702Z,1.07
2022-09-03T02:12:38.279Z,1.10
2022-09-03T02:15:09.653Z,1.57
2022-09-03T02:17:37.363Z,1.10
2022-09-03T02:20:06.791Z,1.20
2022-09-03T02:22:34.466Z,1.40
2022-09-03T02:25:01.700Z,1.10
2022-09-03T02:27:28.884Z,1.10
2022-09-03T02:29:56.813Z,1.10
2022-09-03T02:32:23.781Z,1.20
2022-09-03T02:34:51.097Z,1.20
2022-09-03T02:37:19.470Z,1.20
2022-09-03T02:39:46.587Z,1.03
2022-09-03T02:42:14.315Z,1.07
2022-09-03T02:44:45.250Z,1.10
2022-09-03T02:47:12.218Z,1.10
2022-09-03T02:49:39.193Z,1.10
2022-09-03T02:52:08.994Z,1.30
2022-09-03T02:54:39.130Z,1.27
2022-09-03T02:57:06.710Z,1.10
2022-09-03T02:59:33.821Z,1.27
2022-09-03T03:02:01.253Z,1.10
2022-09-03T03:04:28.402Z,1.40
2022-09-03T03:06:55.410Z,1.30
2022-09-03T03:09:22.774Z,1.20
2022-09-03T03:11:50.621Z,1.23
2022-09-03T03:14:17.899Z,1.40
2022-09-03T03:16:45.165Z,1.13
2022-09-03T03:19:12.192Z,1.10
2022-09-03T03:21:39.205Z,1.10
2022-09-03T03:24:07.402Z,1.53
2022-09-03T03:26:37.714Z,1.30
2022-09-03T03:29:05.102Z,1.00
2022-09-03T03:31:33.000Z,1.40
2022-09-03T03:34:02.590Z,1.30
2022-09-03T03:36:32.110Z,1.40
2022-09-03T03:39:00.768Z,1.40
2022-09-03T03:41:31.030Z,1.67
2022-09-03T03:44:00.704Z,1.20
2022-09-03T03:46:30.823Z,1.27
2022-09-03T03:48:58.032Z,1.20
2022-09-03T03:51:25.018Z,1.43
2022-09-03T03:53:55.110Z,1.10
2022-09-03T03:56:24.321Z,1.10
2022-09-03T03:58:51.420Z,1.07
2022-09-03T04:01:21.238Z,1.30
2022-09-03T04:03:48.561Z,1.57
2022-09-03T04:06:17.375Z,1.40
2022-09-03T04:08:45.899Z,1.43
2022-09-03T04:11:16.496Z,1.83
2022-09-03T04:13:44.754Z,1.43
2022-09-03T04:16:13.490Z,1.60
2022-09-03T04:18:41.542Z,1.57
2022-09-03T04:21:10.726Z,1.80
2022-09-03T04:23:39.304Z,1.30
2022-09-03T04:26:06.856Z,1.40
2022-09-03T04:28:34.296Z,1.53
2022-09-03T04:31:02.037Z,1.30
2022-09-03T04:33:29.229Z,1.83
2022-09-03T04:36:04.707Z,1.77
2022-09-03T04:38:33.188Z,1.57
2022-09-03T04:41:00.435Z,1.50
2022-09-03T04:43:27.523Z,1.50
2022-09-03T04:45:58.169Z,1.80
2022-09-03T04:48:25.265Z,1.90
2022-09-03T04:50:52.388Z,1.60
2022-09-03T04:53:19.815Z,1.43
2022-09-03T04:55:46.795Z,1.30
2022-09-03T04:58:14.112Z,2.07
2022-09-03T05:00:41.127Z,1.60
2022-09-03T05:03:08.094Z,1.87
2022-09-03T05:05:35.052Z,1.80
2022-09-03T05:08:02.865Z,1.50
2022-09-03T05:10:30.731Z,2.23
2022-09-03T05:13:01.841Z,1.80
2022-09-03T05:15:29.718Z,1.73
2022-09-03T05:18:03.394Z,1.70
2022-09-03T05:20:31.961Z,1.70
2022-09-03T05:23:02.450Z,2.00
2022-09-03T05:25:31.435Z,1.77
2022-09-03T05:27:58.502Z,1.53
2022-09-03T05:30:25.583Z,1.67
2022-09-03T05:32:52.692Z,1.57
2022-09-03T05:35:24.105Z,1.67
2022-09-03T05:37:55.766Z,1.87
2022-09-03T05:40:22.880Z,1.67
2022-09-03T05:42:57.086Z,1.30
2022-09-03T05:45:24.168Z,2.07
2022-09-03T05:47:51.121Z,1.77
2022-09-03T05:50:18.656Z,1.60
2022-09-03T05:52:45.624Z,1.77
2022-09-03T05:55:13.564Z,1.50
2022-09-03T05:57:42.775Z,1.40
2022-09-03T06:00:11.637Z,2.00
2022-09-03T06:02:38.499Z,1.50
2022-09-03T06:05:07.113Z,1.70
2022-09-03T06:07:34.118Z,1.60
2022-09-03T06:10:01.178Z,1.87
2022-09-03T06:12:28.229Z,1.50
2022-09-03T06:14:55.252Z,1.60
2022-09-03T06:17:23.740Z,1.40
2022-09-03T06:19:55.511Z,2.00
2022-09-03T06:22:24.275Z,1.57
2022-09-03T06:24:54.033Z,1.57
2022-09-03T06:27:21.023Z,1.47
2022-09-03T06:29:49.328Z,2.00
2022-09-03T06:32:16.572Z,1.63
2022-09-03T06:34:45.608Z,1.43
2022-09-03T06:37:12.936Z,1.70
2022-09-03T06:39:39.967Z,1.73
2022-09-03T06:42:08.263Z,1.63
2022-09-03T06:44:35.285Z,1.50
2022-09-03T06:47:04.327Z,1.40
2022-09-03T06:49:32.390Z,1.40
2022-09-03T06:51:59.721Z,1.73
2022-09-03T06:54:26.737Z,1.90
2022-09-03T06:56:53.445Z,1.70
2022-09-03T06:59:25.054Z,1.50
2022-09-03T07:01:52.081Z,1.33
2022-09-03T07:04:20.383Z,1.60
2022-09-03T07:06:47.783Z,1.50
2022-09-03T07:09:17.542Z,1.40
2022-09-03T07:11:46.476Z,1.50
2022-09-03T07:14:14.292Z,1.57
2022-09-03T07:16:42.340Z,1.40
2022-09-03T07:19:09.472Z,1.43
2022-09-03T07:21:37.252Z,1.33
2022-09-03T07:24:05.081Z,1.50
2022-09-03T07:26:34.988Z,1.20
2022-09-03T07:29:02.084Z,1.40
2022-09-03T07:31:31.288Z,1.67
2022-09-03T07:33:59.134Z,1.27
2022-09-03T07:36:28.133Z,1.40
2022-09-03T07:38:56.546Z,1.40
2022-09-03T07:41:28.693Z,1.30
2022-09-03T07:43:57.247Z,1.27
2022-09-03T07:46:26.522Z,1.30
2022-09-03T07:48:55.326Z,1.50
2022-09-03T07:51:25.902Z,1.40
2022-09-03T07:53:54.288Z,1.20
2022-09-03T07:56:21.620Z,1.37
2022-09-03T07:58:48.604Z,1.40
2022-09-03T08:01:17.869Z,1.40
2022-09-03T08:03:47.246Z,1.30
2022-09-03T08:06:15.741Z,1.00
2022-09-03T08:08:44.501Z,1.03
2022-09-03T08:11:12.805Z,2.10
2022-09-03T08:13:42.429Z,3.23
2022-09-03T08:16:09.772Z,3.80
2022-09-03T08:18:38.558Z,1.20
2022-09-03T08:21:07.247Z,3.40
2022-09-03T08:23:37.412Z,1.53
2022-09-03T08:26:04.378Z,1.10
2022-09-03T08:28:33.633Z,1.57
2022-09-03T08:31:05.650Z,1.40
2022-09-03T08:33:38.839Z,1.27
2022-09-03T08:36:08.857Z,1.30
2022-09-03T08:38:36.302Z,1.73
2022-09-03T08:41:06.698Z,0.90
2022-09-03T08:43:43.633Z,1.50
2022-09-03T08:46:10.685Z,1.83
2022-09-03T08:48:37.755Z,1.40
2022-09-03T08:51:08.092Z,1.30
2022-09-03T08:53:44.672Z,1.27
2022-09-03T08:56:19.020Z,0.90
2022-09-03T08:58:46.111Z,1.10
2022-09-03T09:01:22.378Z,0.93
2022-09-03T09:04:00.451Z,0.93
2022-09-03T09:06:34.724Z,1.20
2022-09-03T09:09:14.350Z,1.00
2022-09-03T09:11:50.430Z,0.90
2022-09-03T09:14:22.563Z,1.00
2022-09-03T09:16:59.553Z,0.90
2022-09-03T09:19:39.277Z,1.03
2022-09-03T09:22:10.615Z,1.20
2022-09-03T09:24:41.325Z,1.10
2022-09-03T09:27:10.825Z,1.30
2022-09-03T09:29:41.586Z,0.93
2022-09-03T09:32:11.749Z,1.10
2022-09-03T09:34:40.622Z,1.50
2022-09-03T09:37:11.141Z,0.70
2022-09-03T09:39:38.443Z,1.00
2022-09-03T09:42:11.383Z,1.00
2022-09-03T09:44:40.366Z,0.80
2022-09-03T09:47:11.600Z,0.90
2022-09-03T09:49:51.468Z,0.80
2022-09-03T09:52:21.432Z,1.40
2022-09-03T09:54:48.523Z,1.00
2022-09-03T09:57:17.596Z,0.70
2022-09-03T09:59:45.544Z,1.20
2022-09-03T10:02:22.166Z,0.90
2022-09-03T10:04:49.866Z,1.10
2022-09-03T10:07:23.767Z,0.97
2022-09-03T10:10:04.222Z,0.87
2022-09-03T10:12:35.521Z,1.27
2022-09-03T10:15:12.297Z,0.80
2022-09-03T10:17:49.146Z,0.90
2022-09-03T10:20:29.684Z,0.67
2022-09-03T10:23:00.957Z,1.10
2022-09-03T10:25:38.395Z,0.80
2022-09-03T10:28:08.139Z,1.10
2022-09-03T10:30:48.078Z,0.70
2022-09-03T10:33:22.463Z,0.90
2022-09-03T10:35:53.162Z,1.53
2022-09-03T10:38:27.932Z,1.30
2022-09-03T10:41:06.673Z,0.80
2022-09-03T10:43:57.771Z,1.10
2022-09-03T10:46:27.852Z,1.20
2022-09-03T10:49:15.606Z,0.90
2022-09-03T10:51:49.408Z,0.93
2022-09-03T10:54:31.856Z,1.10
2022-09-03T10:57:11.359Z,1.53
2022-09-03T10:59:54.617Z,0.80
2022-09-03T11:02:40.475Z,1.20
2022-09-03T11:05:15.173Z,0.93
2022-09-03T11:07:49.004Z,0.80
2022-09-03T11:10:22.464Z,0.90
2022-09-03T11:13:18.885Z,0.87
2022-09-03T11:15:51.652Z,0.83
2022-09-03T11:18:25.813Z,1.13
2022-09-03T11:20:56.492Z,0.70
2022-09-03T11:23:27.717Z,0.80
2022-09-03T11:25:58.997Z,0.90
2022-09-03T11:28:35.532Z,0.83
2022-09-03T11:31:18.031Z,1.20
2022-09-03T11:33:49.271Z,1.10
2022-09-03T11:36:36.216Z,0.87
2022-09-03T11:39:24.063Z,1.00
2022-09-03T11:41:59.451Z,1.13
2022-09-03T11:44:42.711Z,1.20
2022-09-03T11:47:23.255Z,1.10
2022-09-03T11:49:51.937Z,1.20
2022-09-03T11:52:28.775Z,1.03
2022-09-03T11:54:55.980Z,1.00
2022-09-03T11:57:28.531Z,1.00
2022-09-03T12:00:09.082Z,1.27
2022-09-03T12:02:44.727Z,0.90
2022-09-03T12:05:21.815Z,1.13
2022-09-03T12:08:10.462Z,0.70
2022-09-03T12:10:46.123Z,0.90
2022-09-03T12:13:37.636Z,1.13
2022-09-03T12:16:36.068Z,1.10
2022-09-03T12:19:12.712Z,1.10
2022-09-03T12:21:40.378Z,0.97
2022-09-03T12:24:12.750Z,1.10
2022-09-03T12:26:43.826Z,1.03
2022-09-03T12:29:26.662Z,1.37
2022-09-03T12:31:55.997Z,0.83
2022-09-03T12:34:25.061Z,1.20
2022-09-03T12:36:55.524Z,0.93
2022-09-03T12:42:18.918Z,0.90
2022-09-03T12:44:50.766Z,0.60
2022-09-03T12:47:37.757Z,0.80
2022-09-03T12:50:10.977Z,0.70
2022-09-03T12:52:41.955Z,1.07
2022-09-03T12:55:19.603Z,1.00
2022-09-03T12:57:50.105Z,0.90
2022-09-03T13:00:19.168Z,1.00
2022-09-03T13:02:53.027Z,0.70
2022-09-03T13:05:26.119Z,1.00
2022-09-03T13:07:56.415Z,0.97
2022-09-03T13:10:28.477Z,0.90
2022-09-03T13:12:59.751Z,0.90
2022-09-03T13:15:29.150Z,0.80
2022-09-03T13:18:22.940Z,0.80
2022-09-03T13:21:03.523Z,1.20
2022-09-03T13:23:45.334Z,0.90
2022-09-03T13:26:24.068Z,0.87
2022-09-03T13:29:19.985Z,0.97
2022-09-03T13:31:52.573Z,2.00
2022-09-03T13:34:25.223Z,1.00
2022-09-03T13:36:58.453Z,0.83
2022-09-03T13:39:30.333Z,0.80
2022-09-03T13:42:05.437Z,1.10
2022-09-03T13:44:41.107Z,1.10
2022-09-03T13:47:24.668Z,0.90
2022-09-03T13:50:13.250Z,0.80
2022-09-03T13:52:46.391Z,0.87
2022-09-03T13:55:20.098Z,0.90
2022-09-03T13:57:52.968Z,1.20
2022-09-03T14:00:27.185Z,0.90
2022-09-03T14:03:17.059Z,0.90
2022-09-03T14:06:05.285Z,1.00
2022-09-03T14:08:50.447Z,1.07
2022-09-03T14:11:27.498Z,0.90
2022-09-03T14:14:11.355Z,0.90
2022-09-03T14:16:44.582Z,1.17
2022-09-03T14:19:17.202Z,0.97
2022-09-03T14:21:52.341Z,1.00
2022-09-03T14:24:26.270Z,1.00
2022-09-03T14:26:55.673Z,1.07
2022-09-03T14:29:27.022Z,1.37
2022-09-03T14:32:22.662Z,1.30
2022-09-03T14:35:13.476Z,1.23
2022-09-03T14:38:06.786Z,1.33
2022-09-03T14:40:42.299Z,1.30
2022-09-03T14:43:24.973Z,1.03
2022-09-03T14:46:11.033Z,1.00
2022-09-03T14:49:00.532Z,1.10
2022-09-03T14:51:46.663Z,1.37
2022-09-03T14:54:40.754Z,1.20
2022-09-03T14:57:28.173Z,0.87
2022-09-03T15:00:12.070Z,1.13
2022-09-03T15:03:15.978Z,1.00
2022-09-03T15:05:49.412Z,1.67
2022-09-03T15:08:33.546Z,1.40
2022-09-03T15:11:03.701Z,1.40
2022-09-03T15:13:34.299Z,1.20
2022-09-03T15:16:18.248Z,1.30
2022-09-03T15:19:01.145Z,1.10
2022-09-03T15:21:40.085Z,1.00
2022-09-03T15:24:17.308Z,0.90
2022-09-03T15:27:06.709Z,1.20
2022-09-03T15:29:47.904Z,1.37
2022-09-03T15:32:28.352Z,1.17
2022-09-03T15:35:05.004Z,1.20
2022-09-03T15:37:38.880Z,1.30
2022-09-03T15:40:09.663Z,1.20
2022-09-03T15:42:38.096Z,1.00
2022-09-03T15:45:17.213Z,1.23
2022-09-03T15:47:55.388Z,1.30
2022-09-03T15:50:36.207Z,1.27
2022-09-03T15:53:14.874Z,1.23
2022-09-03T15:55:44.272Z,1.00
2022-09-03T15:58:23.039Z,1.20
2022-09-03T16:01:02.272Z,1.40
2022-09-03T16:03:43.711Z,1.53
2022-09-03T16:06:26.147Z,1.40
2022-09-03T16:08:57.687Z,1.40
2022-09-03T16:11:36.230Z,1.50
2022-09-03T16:14:10.399Z,1.40
2022-09-03T16:16:57.675Z,1.30
2022-09-03T16:19:30.705Z,1.50
2022-09-03T16:22:00.749Z,1.20
2022-09-03T16:24:38.052Z,3.37
2022-09-03T16:27:13.805Z,1.70
2022-09-03T16:29:44.138Z,1.33
2022-09-03T16:32:20.609Z,1.70
2022-09-03T16:35:01.278Z,1.40
2022-09-03T16:37:34.894Z,1.27
2022-09-03T16:40:13.012Z,1.40
2022-09-03T16:42:44.643Z,1.30
2022-09-03T16:45:26.571Z,1.50
2022-09-03T16:48:06.027Z,1.40
2022-09-03T16:50:47.125Z,1.20
2022-09-03T16:53:15.937Z,1.37
2022-09-03T16:56:00.413Z,1.70
2022-09-03T16:58:36.053Z,1.70
2022-09-03T17:01:15.226Z,1.43
2022-09-03T17:04:32.555Z,1.50
2022-09-03T17:07:13.131Z,1.33
2022-09-03T17:09:56.468Z,1.57
2022-09-03T17:12:30.905Z,1.40
2022-09-03T17:15:20.087Z,1.60
2022-09-03T17:18:07.505Z,1.40
2022-09-03T17:20:51.052Z,2.00
2022-09-03T17:23:43.219Z,1.70
2022-09-03T17:26:12.925Z,2.03
2022-09-03T17:28:52.050Z,1.60
2022-09-03T17:31:27.761Z,1.53
2022-09-03T17:34:05.302Z,1.60
2022-09-03T17:36:37.149Z,1.63
2022-09-03T17:39:28.513Z,2.00
2022-09-03T17:41:59.222Z,2.07
2022-09-03T17:44:41.102Z,1.80
2022-09-03T17:47:37.386Z,1.70
2022-09-03T17:50:15.171Z,1.80
2022-09-03T17:52:47.875Z,1.77
2022-09-03T17:55:24.306Z,2.20
2022-09-03T17:57:58.467Z,2.27
2022-09-03T18:00:34.343Z,1.90
2022-09-03T18:03:08.448Z,1.80
2022-09-03T18:05:46.314Z,1.97
2022-09-03T18:08:20.405Z,2.20
2022-09-03T18:10:58.346Z,1.77
2022-09-03T18:13:34.405Z,2.00
2022-09-03T18:16:06.889Z,1.70
2022-09-03T18:18:36.826Z,1.80
2022-09-03T18:21:31.927Z,1.90
2022-09-03T18:24:23.188Z,2.00
2022-09-03T18:27:15.534Z,1.67
2022-09-03T18:30:05.276Z,2.00
2022-09-03T18:32:50.535Z,1.80
2022-09-03T18:35:35.970Z,1.97
2022-09-03T18:38:22.964Z,1.80
2022-09-03T18:41:14.053Z,2.17
2022-09-03T18:44:11.733Z,2.17
2022-09-03T18:50:23.775Z,1.90
2022-09-03T18:53:14.833Z,2.37
2022-09-03T18:56:14.404Z,1.97
2022-09-03T18:59:10.853Z,2.53
2022-09-03T19:01:58.822Z,1.80
2022-09-03T19:04:55.364Z,1.97
2022-09-03T19:07:47.830Z,1.97
2022-09-03T19:10:40.245Z,2.10
2022-09-03T19:13:38.996Z,2.37
2022-09-03T19:16:29.907Z,1.93
2022-09-03T19:19:31.983Z,2.23
2022-09-03T19:22:26.081Z,2.03
2022-09-03T19:25:15.428Z,2.50
2022-09-03T19:28:11.843Z,2.50
2022-09-03T19:31:19.753Z,2.33
2022-09-03T19:34:11.805Z,2.63
2022-09-03T19:37:02.577Z,2.30
2022-09-03T19:40:04.256Z,2.37
2022-09-03T19:43:03.705Z,2.20
2022-09-03T19:46:00.288Z,2.23
2022-09-03T19:48:55.332Z,2.67
2022-09-03T19:51:47.811Z,2.57
2022-09-03T19:54:33.763Z,2.20
2022-09-03T19:57:19.417Z,2.20
2022-09-03T20:00:08.114Z,2.40
2022-09-03T20:02:53.751Z,2.50
2022-09-03T20:05:40.598Z,2.43
2022-09-03T20:08:26.352Z,2.23
2022-09-03T20:10:56.628Z,2.33
2022-09-03T20:13:23.669Z,2.60
2022-09-03T20:16:06.580Z,2.83
2022-09-03T20:18:43.153Z,2.47
2022-09-03T20:21:17.436Z,2.33
2022-09-03T20:23:52.938Z,2.33
2022-09-03T20:26:34.738Z,2.30
2022-09-03T20:29:27.079Z,2.77
2022-09-03T20:31:59.839Z,2.20
2022-09-03T20:34:36.114Z,2.23
2022-09-03T20:37:14.227Z,2.67
2022-09-03T20:39:52.597Z,2.30
2022-09-03T20:42:40.486Z,2.67
2022-09-03T20:45:12.863Z,2.20
2022-09-03T20:48:06.906Z,2.47
2022-09-03T20:50:55.796Z,2.20
2022-09-03T20:53:48.230Z,2.13
2022-09-03T20:56:21.579Z,2.40
2022-09-03T20:58:57.149Z,2.30
2022-09-03T21:01:32.951Z,2.40
2022-09-03T21:04:12.094Z,1.87
2022-09-03T21:06:44.010Z,2.23
2022-09-03T21:09:20.191Z,2.20
2022-09-03T21:11:52.836Z,1.90
2022-09-03T21:14:31.606Z,2.23
2022-09-03T21:17:19.771Z,2.00
2022-09-03T21:20:00.061Z,2.23
2022-09-03T21:22:33.639Z,2.30
2022-09-03T21:25:05.517Z,2.20
2022-09-03T21:27:38.772Z,1.90
2022-09-03T21:30:08.580Z,2.00
2022-09-03T21:32:42.546Z,2.23
2022-09-03T21:35:18.497Z,1.70
2022-09-03T21:37:54.519Z,1.97
2022-09-03T21:40:28.148Z,2.00
2022-09-03T21:43:01.614Z,2.03
2022-09-03T21:45:34.660Z,2.20
2022-09-03T21:48:15.665Z,2.13
2022-09-03T21:50:49.368Z,2.00
2022-09-03T21:53:22.868Z,2.00
2022-09-03T21:56:14.166Z,2.67
2022-09-03T21:58:56.740Z,1.90
2022-09-03T22:01:32.193Z,1.93
2022-09-03T22:03:59.288Z,2.00
2022-09-03T22:06:34.825Z,1.70
2022-09-03T22:09:09.283Z,1.70
2022-09-03T22:11:44.764Z,1.50
2022-09-03T22:14:14.750Z,1.83
2022-09-03T22:16:47.263Z,1.63
2022-09-03T22:19:14.328Z,1.63
2022-09-03T22:21:44.865Z,1.50
2022-09-03T22:24:22.435Z,1.60
2022-09-03T22:26:56.453Z,1.60
2022-09-03T22:29:34.085Z,1.33
2022-09-03T22:32:06.056Z,1.73
2022-09-03T22:34:51.447Z,1.80
2022-09-03T22:37:25.634Z,1.80
2022-09-03T22:39:57.071Z,1.50
2022-09-03T22:42:38.645Z,1.87
2022-09-03T22:45:34.130Z,1.70
2022-09-03T22:48:14.289Z,1.77
2022-09-03T22:50:49.121Z,1.93
2022-09-03T22:53:25.306Z,1.33
2022-09-03T22:55:59.357Z,1.20
2022-09-03T22:58:33.619Z,1.47
2022-09-03T23:01:08.149Z,1.63
2022-09-03T23:03:41.309Z,1.73
2022-09-03T23:06:17.201Z,1.40
2022-09-03T23:08:46.771Z,1.50
2022-09-03T23:11:25.622Z,1.37
2022-09-03T23:14:00.227Z,1.40
2022-09-03T23:16:33.464Z,1.30
2022-09-03T23:19:15.218Z,1.40
2022-09-03T23:21:49.187Z,1.50
2022-09-03T23:24:20.824Z,1.73
2022-09-03T23:26:51.901Z,1.37
2022-09-03T23:29:23.346Z,1.50
2022-09-03T23:31:52.739Z,1.50
2022-09-03T23:34:21.794Z,1.50
2022-09-03T23:37:16.430Z,1.60
2022-09-03T23:40:15.866Z,1.40
2022-09-03T23:42:58.104Z,1.10
2022-09-03T23:45:36.565Z,1.40
2022-09-03T23:48:13.264Z,1.57
2022-09-03T23:50:48.090Z,1.47
2022-09-03T23:53:27.959Z,1.30
2022-09-03T23:56:22.542Z,1.50
2022-09-03T23:59:00.231Z,1.50
